createdAt,value
2023-03-07T00:09:54.717Z,0
2023-03-07T00:20:00.952Z,0
2023-03-07T00:30:07.122Z,0
2023-03-07T00:40:13.340Z,0
2023-03-07T00:50:19.569Z,0
2023-03-07T01:00:25.762Z,0
2023-03-07T01:10:31.990Z,0
2023-03-07T01:20:38.212Z,0
2023-03-07T01:30:44.420Z,0
2023-03-07T01:40:50.667Z,0
2023-03-07T01:50:56.887Z,0
2023-03-07T02:01:03.071Z,0
2023-03-07T02:11:09.297Z,0
2023-03-07T02:21:15.498Z,0
2023-03-07T02:31:21.716Z,0
2023-03-07T02:41:27.918Z,0
2023-03-07T02:51:34.157Z,0
2023-03-07T03:01:40.563Z,0
2023-03-07T03:11:46.841Z,0
2023-03-07T03:21:53.113Z,0
2023-03-07T03:31:59.387Z,0
2023-03-07T03:42:05.633Z,0
2023-03-07T03:52:11.900Z,0
2023-03-07T04:02:18.167Z,0
2023-03-07T04:12:24.423Z,0
2023-03-07T04:22:30.677Z,0
2023-03-07T04:32:36.956Z,0
2023-03-07T04:42:43.242Z,0
2023-03-07T04:52:49.503Z,0
2023-03-07T05:02:55.809Z,0
2023-03-07T05:13:02.019Z,0
2023-03-07T05:23:08.268Z,0
2023-03-07T05:33:14.558Z,0
2023-03-07T05:43:20.802Z,0
2023-03-07T05:53:27.090Z,5
2023-03-07T06:03:33.347Z,16
2023-03-07T06:13:39.611Z,45
2023-03-07T06:23:46.135Z,73
2023-03-07T06:33:52.332Z,101
2023-03-07T06:43:58.588Z,90
2023-03-07T06:54:04.862Z,112
2023-03-07T07:04:11.097Z,135
2023-03-07T07:14:17.362Z,135
2023-03-07T07:24:23.610Z,168
2023-03-07T07:34:29.941Z,213
2023-03-07T07:44:36.206Z,241
2023-03-07T07:54:42.517Z,225
2023-03-07T08:04:48.909Z,253
2023-03-07T08:14:55.002Z,298
2023-03-07T08:25:01.329Z,315
2023-03-07T08:35:07.553Z,523
2023-03-07T08:45:13.795Z,888
2023-03-07T08:55:20.060Z,1231
2023-03-07T09:05:26.292Z,956
2023-03-07T09:15:32.584Z,894
2023-03-07T09:25:38.839Z,781
2023-03-07T09:35:45.105Z,697
2023-03-07T09:45:51.370Z,742
2023-03-07T09:55:57.647Z,821
2023-03-07T10:06:03.960Z,888
2023-03-07T10:16:10.181Z,866
2023-03-07T10:26:16.466Z,585
2023-03-07T10:36:22.737Z,658
2023-03-07T10:46:29.033Z,641
2023-03-07T10:56:35.277Z,725
2023-03-07T11:06:41.496Z,736
2023-03-07T11:16:47.822Z,500
2023-03-07T11:37:00.401Z,495
2023-03-07T11:47:06.588Z,427
2023-03-07T11:57:12.847Z,478
2023-03-07T12:07:19.345Z,253
2023-03-07T12:17:25.609Z,286
2023-03-07T12:27:31.868Z,365
2023-03-07T12:37:38.184Z,320
2023-03-07T12:47:44.443Z,219
2023-03-07T12:57:50.697Z,320
2023-03-07T13:07:56.944Z,517
2023-03-07T13:18:03.176Z,534
2023-03-07T13:28:09.509Z,489
2023-03-07T13:38:15.792Z,511
2023-03-07T13:48:21.991Z,511
2023-03-07T13:58:28.333Z,618
2023-03-07T14:08:34.663Z,506
2023-03-07T14:18:40.778Z,556
2023-03-07T14:28:47.021Z,230
2023-03-07T14:38:53.378Z,163
2023-03-07T14:48:59.571Z,163
2023-03-07T14:59:05.860Z,151
2023-03-07T15:09:12.108Z,236
2023-03-07T15:19:18.355Z,258
2023-03-07T15:29:24.806Z,236
2023-03-07T15:39:31.056Z,219
2023-03-07T15:49:37.310Z,185
2023-03-07T15:59:43.602Z,157
2023-03-07T16:09:49.849Z,56
2023-03-07T16:19:56.115Z,45
2023-03-07T16:30:02.420Z,33
2023-03-07T16:40:08.647Z,22
2023-03-07T16:50:14.931Z,22
2023-03-07T17:00:21.179Z,16
2023-03-07T17:10:27.460Z,5
2023-03-07T17:20:32.757Z,0
2023-03-07T17:30:39.039Z,0
2023-03-07T17:40:45.351Z,0
2023-03-07T17:50:51.545Z,0
2023-03-07T18:00:57.837Z,0
2023-03-07T18:11:04.083Z,0
2023-03-07T18:21:10.355Z,0
2023-03-07T18:31:16.633Z,0
2023-03-07T18:41:22.881Z,0
2023-03-07T18:51:29.155Z,0
2023-03-07T19:01:35.447Z,0
2023-03-07T19:11:41.689Z,0
2023-03-07T19:21:48.000Z,0
2023-03-07T19:31:54.293Z,0
2023-03-07T19:42:00.648Z,0
2023-03-07T19:52:06.808Z,0
2023-03-07T20:02:13.107Z,0
2023-03-07T20:12:19.397Z,0
2023-03-07T20:22:25.653Z,0
2023-03-07T20:32:31.942Z,0
2023-03-07T20:42:38.191Z,0
2023-03-07T20:52:44.453Z,0
2023-03-07T21:02:50.737Z,0
2023-03-07T21:12:56.975Z,0
2023-03-07T21:23:03.256Z,0
2023-03-07T21:33:09.496Z,0
2023-03-07T21:43:15.835Z,0
2023-03-07T21:53:22.091Z,0
2023-03-07T22:03:28.313Z,0
2023-03-07T22:13:34.582Z,0
2023-03-07T22:23:40.819Z,0
2023-03-07T22:33:47.091Z,0
2023-03-07T22:43:53.437Z,0
2023-03-07T22:53:59.717Z,0
2023-03-07T23:04:05.903Z,0
2023-03-07T23:14:12.143Z,0
2023-03-07T23:24:18.418Z,0
2023-03-07T23:34:24.861Z,0
2023-03-07T23:44:30.929Z,0
2023-03-07T23:54:37.237Z,0
